Time;durP1;ratioP1;P1;durP2;ratioP2;P2;SDS_P1;SDS_P2;PMS_P1;PMS_P2;Temp;Humidity;BMP_temperature;BMP_pressure;BME280_temperature;BME280_humidity;BME280_pressure;Samples;Min_cycle;Max_cycle;Signal;HPM_P1;HPM_P2
2021/03/17 00:01:14;;;;;;;7.72;0.93;;;;;;;;;;4932943;28;20398;-60
2021/03/17 00:03:42;;;;;;;2.38;0.57;;;;;;;;;;4931809;28;20039;-60
2021/03/17 00:06:12;;;;;;;10.50;1.20;;;;;;;;;;4915130;28;20038;-59
2021/03/17 00:08:39;;;;;;;2.80;1.17;;;;;;;;;;4929416;28;20032;-59
2021/03/17 00:11:05;;;;;;;5.40;0.95;;;;;;;;;;4930482;28;20567;-60
2021/03/17 00:13:31;;;;;;;4.05;1.17;;;;;;;;;;4931346;28;20042;-60
2021/03/17 00:16:04;;;;;;;1.67;0.98;;;;;;;;;;4913106;28;20395;-60
2021/03/17 00:18:30;;;;;;;5.93;1.15;;;;;;;;;;4915275;28;20035;-60
2021/03/17 00:21:00;;;;;;;9.85;1.45;;;;;;;;;;4915946;28;20036;-61
2021/03/17 00:23:25;;;;;;;4.53;1.33;;;;;;;;;;4935094;28;20077;-62
2021/03/17 00:25:51;;;;;;;6.75;1.27;;;;;;;;;;4934591;28;20042;-60
2021/03/17 00:28:16;;;;;;;11.60;1.90;;;;;;;;;;4916926;28;20897;-60
2021/03/17 00:30:42;;;;;;;3.17;1.20;;;;;;;;;;4935094;28;20054;-59
2021/03/17 00:33:10;;;;;;;13.45;1.60;;;;;;;;;;4917132;28;20039;-60
2021/03/17 00:35:39;;;;;;;8.73;0.93;;;;;;;;;;4934385;28;20035;-61
2021/03/17 00:38:05;;;;;;;4.20;0.93;;;;;;;;;;4915306;28;20148;-60
2021/03/17 00:40:30;;;;;;;6.22;0.75;;;;;;;;;;4936440;28;20035;-60
2021/03/17 00:42:56;;;;;;;7.35;0.77;;;;;;;;;;4935582;28;20054;-60
2021/03/17 00:45:22;;;;;;;11.63;1.40;;;;;;;;;;4931212;28;20055;-61
2021/03/17 00:47:47;;;;;;;7.78;0.80;;;;;;;;;;4934469;28;20050;-60
2021/03/17 00:50:15;;;;;;;4.85;0.88;;;;;;;;;;4914706;28;20662;-61
2021/03/17 00:52:42;;;;;;;5.00;0.70;;;;;;;;;;4918976;28;20104;-60
2021/03/17 00:55:08;;;;;;;2.25;0.68;;;;;;;;;;4931728;28;20679;-60
2021/03/17 00:57:34;;;;;;;1.23;0.43;;;;;;;;;;4931163;28;20118;-60
2021/03/17 01:00:02;;;;;;;7.20;1.23;;;;;;;;;;4934490;28;20039;-58
2021/03/17 01:02:27;;;;;;;2.53;0.85;;;;;;;;;;4934241;28;20126;-61
2021/03/17 01:04:56;;;;;;;17.20;2.65;;;;;;;;;;4936838;28;20035;-59
2021/03/17 01:07:21;;;;;;;2.33;1.02;;;;;;;;;;4913807;28;20041;-59
2021/03/17 01:09:50;;;;;;;4.00;1.02;;;;;;;;;;4936435;28;20034;-62
2021/03/17 01:12:18;;;;;;;7.57;1.00;;;;;;;;;;4933701;28;20031;-60
2021/03/17 01:14:46;;;;;;;3.97;1.25;;;;;;;;;;4934822;28;20047;-60
2021/03/17 01:17:14;;;;;;;1.52;0.60;;;;;;;;;;4933193;28;20027;-61
2021/03/17 01:19:42;;;;;;;5.40;1.02;;;;;;;;;;4930677;28;20034;-61
2021/03/17 01:22:10;;;;;;;6.00;0.98;;;;;;;;;;4934855;28;20454;-60
2021/03/17 01:24:38;;;;;;;1.88;1.00;;;;;;;;;;4931582;28;20113;-61
2021/03/17 01:27:06;;;;;;;5.35;0.88;;;;;;;;;;4916851;28;20519;-60
2021/03/17 01:29:33;;;;;;;7.15;1.13;;;;;;;;;;4933953;28;20031;-60
2021/03/17 01:32:01;;;;;;;4.65;0.80;;;;;;;;;;4923262;28;20058;-60
2021/03/17 01:34:30;;;;;;;5.28;1.38;;;;;;;;;;4914985;28;20466;-60
2021/03/17 01:36:55;;;;;;;1.15;0.57;;;;;;;;;;4925158;28;20035;-61
2021/03/17 01:39:23;;;;;;;12.52;1.00;;;;;;;;;;4908703;28;20101;-61
2021/03/17 01:41:49;;;;;;;4.85;1.00;;;;;;;;;;4927264;28;20038;-59
2021/03/17 01:44:19;;;;;;;10.02;1.30;;;;;;;;;;4926910;28;20055;-59
2021/03/17 01:46:47;;;;;;;6.78;1.00;;;;;;;;;;4910921;28;20154;-60
2021/03/17 01:49:15;;;;;;;6.65;0.95;;;;;;;;;;4914671;29;20110;-60
2021/03/17 01:51:41;;;;;;;7.72;1.25;;;;;;;;;;4914513;29;20692;-59
2021/03/17 01:54:09;;;;;;;5.07;1.10;;;;;;;;;;4917721;28;20035;-61
2021/03/17 01:56:40;;;;;;;10.00;1.50;;;;;;;;;;4906816;29;20147;-59
2021/03/17 01:59:06;;;;;;;8.65;1.08;;;;;;;;;;4930533;28;20034;-60
2021/03/17 02:01:34;;;;;;;2.28;1.30;;;;;;;;;;4926042;28;20040;-59
2021/03/17 02:04:01;;;;;;;7.00;1.50;;;;;;;;;;4929358;28;20069;-61
2021/03/17 02:06:26;;;;;;;9.07;2.08;;;;;;;;;;4927250;28;20036;-60
2021/03/17 02:08:52;;;;;;;4.78;0.85;;;;;;;;;;4902727;29;20051;-60
2021/03/17 02:11:17;;;;;;;7.45;1.50;;;;;;;;;;4923639;28;20042;-60
2021/03/17 02:14:04;;;;;;;5.15;1.27;;;;;;;;;;4928615;28;20032;-60
2021/03/17 02:16:32;;;;;;;4.25;1.33;;;;;;;;;;4923078;28;20036;-60
2021/03/17 02:18:57;;;;;;;4.32;0.98;;;;;;;;;;4912957;29;20042;-61
2021/03/17 02:21:26;;;;;;;4.93;1.00;;;;;;;;;;4896006;29;20040;-60
2021/03/17 02:24:12;;;;;;;6.22;1.33;;;;;;;;;;4915068;29;20039;-60
2021/03/17 02:26:46;;;;;;;7.45;1.00;;;;;;;;;;4907999;29;20118;-60
2021/03/17 02:29:27;;;;;;;3.78;0.80;;;;;;;;;;4906966;29;20031;-60
2021/03/17 02:32:11;;;;;;;5.45;1.40;;;;;;;;;;4914220;28;21626;-60
2021/03/17 02:34:40;;;;;;;11.15;2.05;;;;;;;;;;4914402;29;20115;-62
2021/03/17 02:37:07;;;;;;;3.88;1.05;;;;;;;;;;4925848;28;20558;-60
2021/03/17 02:39:33;;;;;;;6.45;0.95;;;;;;;;;;4927570;28;20035;-60
2021/03/17 02:42:06;;;;;;;3.53;0.98;;;;;;;;;;4909713;29;20039;-61
2021/03/17 02:44:35;;;;;;;3.80;1.10;;;;;;;;;;4919861;28;20050;-62
2021/03/17 02:47:06;;;;;;;4.95;1.13;;;;;;;;;;4934020;28;20294;-60
2021/03/17 02:49:34;;;;;;;1.15;0.50;;;;;;;;;;4932410;28;20027;-61
2021/03/17 02:52:02;;;;;;;2.83;1.42;;;;;;;;;;4932875;28;20035;-60
2021/03/17 02:54:28;;;;;;;1.38;0.75;;;;;;;;;;4932949;28;20086;-60
2021/03/17 02:56:58;;;;;;;2.92;0.95;;;;;;;;;;4926768;28;20050;-60
2021/03/17 02:59:27;;;;;;;1.48;1.00;;;;;;;;;;4934546;28;20073;-60
2021/03/17 03:02:00;;;;;;;2.97;1.20;;;;;;;;;;4933833;28;20043;-60
2021/03/17 03:04:29;;;;;;;2.53;1.00;;;;;;;;;;4931292;28;20035;-61
2021/03/17 03:06:57;;;;;;;7.72;1.15;;;;;;;;;;4932538;28;20027;-60
2021/03/17 03:09:25;;;;;;;4.78;1.23;;;;;;;;;;4933200;28;20582;-60
2021/03/17 03:11:51;;;;;;;5.63;0.93;;;;;;;;;;4933480;28;20542;-60
2021/03/17 03:14:17;;;;;;;5.90;1.00;;;;;;;;;;4932741;28;20498;-60
2021/03/17 03:16:43;;;;;;;5.68;1.90;;;;;;;;;;4930350;28;20031;-61
2021/03/17 03:19:11;;;;;;;5.43;1.73;;;;;;;;;;4929556;28;20031;-60
2021/03/17 03:21:39;;;;;;;3.63;1.40;;;;;;;;;;4932370;28;20034;-60
2021/03/17 03:24:05;;;;;;;9.77;1.63;;;;;;;;;;4928273;28;20043;-60
2021/03/17 03:26:34;;;;;;;6.53;1.00;;;;;;;;;;4928886;28;20677;-60
2021/03/17 03:29:03;;;;;;;7.30;1.17;;;;;;;;;;4933676;28;20053;-61
2021/03/17 03:31:29;;;;;;;4.18;1.13;;;;;;;;;;4931943;28;20070;-60
2021/03/17 03:33:55;;;;;;;3.17;0.80;;;;;;;;;;4930757;28;20586;-60
2021/03/17 03:36:21;;;;;;;6.95;1.17;;;;;;;;;;4932973;28;20031;-61
2021/03/17 03:38:49;;;;;;;3.80;2.13;;;;;;;;;;4929462;28;20023;-61
2021/03/17 03:41:20;;;;;;;1.95;1.23;;;;;;;;;;4927969;28;20066;-61
2021/03/17 03:43:45;;;;;;;13.02;1.17;;;;;;;;;;4931423;28;20403;-60
2021/03/17 03:46:10;;;;;;;8.13;1.23;;;;;;;;;;4931090;28;20050;-60
2021/03/17 03:48:37;;;;;;;11.35;1.70;;;;;;;;;;4914611;28;20041;-61
2021/03/17 03:51:05;;;;;;;3.40;0.45;;;;;;;;;;4932910;28;20201;-61
2021/03/17 03:53:31;;;;;;;7.13;1.38;;;;;;;;;;4932642;28;20487;-61
2021/03/17 03:56:00;;;;;;;6.80;1.00;;;;;;;;;;4934778;28;22068;-60
2021/03/17 03:58:30;;;;;;;4.97;1.15;;;;;;;;;;4932982;28;20154;-60
2021/03/17 04:01:27;;;;;;;2.83;0.70;;;;;;;;;;4928499;28;20058;-60
2021/03/17 04:03:57;;;;;;;3.83;0.93;;;;;;;;;;4900129;28;21993;-61
2021/03/17 04:06:27;;;;;;;2.47;0.68;;;;;;;;;;4932252;28;20031;-60
2021/03/17 04:08:56;;;;;;;2.40;1.05;;;;;;;;;;4927336;28;20490;-61
2021/03/17 04:11:22;;;;;;;4.07;1.20;;;;;;;;;;4917935;28;20035;-61
2021/03/17 04:13:50;;;;;;;4.55;1.00;;;;;;;;;;4949648;28;20038;-60
2021/03/17 04:16:19;;;;;;;8.93;1.05;;;;;;;;;;4930254;29;20503;-61
2021/03/17 04:18:46;;;;;;;4.05;1.08;;;;;;;;;;4956679;28;20422;-60
2021/03/17 04:21:19;;;;;;;2.10;1.10;;;;;;;;;;4934102;29;20050;-63
2021/03/17 04:23:47;;;;;;;1.83;0.70;;;;;;;;;;4946169;28;20507;-61
2021/03/17 04:26:16;;;;;;;3.33;1.10;;;;;;;;;;4949994;28;20059;-61
2021/03/17 04:28:43;;;;;;;3.60;0.88;;;;;;;;;;4929625;28;20061;-61
2021/03/17 04:31:11;;;;;;;4.15;0.85;;;;;;;;;;4950205;28;20019;-61
2021/03/17 04:33:40;;;;;;;4.70;1.50;;;;;;;;;;4948625;28;20627;-61
2021/03/17 04:36:06;;;;;;;1.42;0.80;;;;;;;;;;4945343;28;20040;-61
2021/03/17 04:38:37;;;;;;;2.13;1.00;;;;;;;;;;4945181;28;20117;-60
2021/03/17 04:41:07;;;;;;;9.70;1.40;;;;;;;;;;4947735;28;20062;-60
2021/03/17 04:43:36;;;;;;;2.72;1.30;;;;;;;;;;4951549;28;20047;-60
2021/03/17 04:46:07;;;;;;;10.27;1.42;;;;;;;;;;4948127;28;20444;-60
2021/03/17 04:48:35;;;;;;;3.22;0.73;;;;;;;;;;4931769;28;20031;-60
2021/03/17 04:51:00;;;;;;;1.77;0.85;;;;;;;;;;4945365;28;20031;-61
2021/03/17 04:53:26;;;;;;;7.60;1.42;;;;;;;;;;4945810;28;20043;-60
2021/03/17 04:55:57;;;;;;;5.80;1.17;;;;;;;;;;4933615;28;20671;-61
2021/03/17 04:58:24;;;;;;;10.93;1.50;;;;;;;;;;4946922;28;20419;-61
2021/03/17 05:00:50;;;;;;;1.80;0.90;;;;;;;;;;4951094;28;20035;-61
2021/03/17 05:03:20;;;;;;;4.90;1.33;;;;;;;;;;4956094;28;20130;-60
2021/03/17 05:05:50;;;;;;;3.83;1.05;;;;;;;;;;4949827;28;20023;-60
2021/03/17 05:08:16;;;;;;;4.93;1.50;;;;;;;;;;4950783;28;20047;-60
2021/03/17 05:10:42;;;;;;;4.25;0.75;;;;;;;;;;4951671;28;20022;-60
2021/03/17 05:13:09;;;;;;;4.70;1.00;;;;;;;;;;4949228;28;20097;-61
2021/03/17 05:15:37;;;;;;;1.67;0.77;;;;;;;;;;4953565;28;20062;-59
2021/03/17 05:18:06;;;;;;;7.40;0.90;;;;;;;;;;4944865;28;20027;-59
2021/03/17 05:20:37;;;;;;;2.90;1.15;;;;;;;;;;4945886;28;20031;-60
2021/03/17 05:23:05;;;;;;;3.40;1.20;;;;;;;;;;4953003;28;20047;-59
2021/03/17 05:25:37;;;;;;;3.85;0.90;;;;;;;;;;4936690;28;20065;-59
2021/03/17 05:28:08;;;;;;;4.43;1.20;;;;;;;;;;4955109;28;20708;-60
2021/03/17 05:30:36;;;;;;;6.47;0.73;;;;;;;;;;4953481;28;20024;-59
2021/03/17 05:33:05;;;;;;;5.50;1.20;;;;;;;;;;4955821;28;20050;-59
2021/03/17 05:35:30;;;;;;;7.93;1.75;;;;;;;;;;4951567;28;20031;-60
2021/03/17 05:37:58;;;;;;;1.55;0.88;;;;;;;;;;4950211;28;20549;-60
2021/03/17 05:40:23;;;;;;;2.70;1.15;;;;;;;;;;4947567;28;20031;-60
2021/03/17 05:42:49;;;;;;;2.20;0.75;;;;;;;;;;4956564;28;20069;-60
2021/03/17 05:45:21;;;;;;;4.35;0.85;;;;;;;;;;4939640;28;20054;-60
2021/03/17 05:47:47;;;;;;;4.53;1.55;;;;;;;;;;4931130;29;20436;-59
2021/03/17 05:50:18;;;;;;;5.93;0.70;;;;;;;;;;4932688;29;20032;-60
2021/03/17 05:52:47;;;;;;;4.43;1.17;;;;;;;;;;4939108;29;20031;-60
2021/03/17 05:55:13;;;;;;;3.25;1.35;;;;;;;;;;4934245;29;20035;-60
2021/03/17 05:57:42;;;;;;;4.47;0.98;;;;;;;;;;4912890;29;20032;-61
2021/03/17 06:00:14;;;;;;;9.40;0.93;;;;;;;;;;4934074;29;20132;-60
2021/03/17 06:02:41;;;;;;;2.92;1.08;;;;;;;;;;4931468;29;20530;-60
2021/03/17 06:05:08;;;;;;;11.07;1.33;;;;;;;;;;4917532;29;20027;-60
2021/03/17 06:07:49;;;;;;;9.68;1.08;;;;;;;;;;4936510;29;20023;-60
2021/03/17 06:10:17;;;;;;;6.72;1.17;;;;;;;;;;4928832;29;20028;-60
2021/03/17 06:12:44;;;;;;;11.73;1.05;;;;;;;;;;4932241;29;20043;-60
2021/03/17 06:15:14;;;;;;;12.60;1.13;;;;;;;;;;4937701;29;20032;-60
2021/03/17 06:17:45;;;;;;;10.00;1.08;;;;;;;;;;4916801;29;20156;-59
2021/03/17 06:20:14;;;;;;;1.52;1.00;;;;;;;;;;4932596;29;20035;-59
2021/03/17 06:22:40;;;;;;;2.90;0.80;;;;;;;;;;4934498;28;20031;-60
2021/03/17 06:25:08;;;;;;;3.85;0.95;;;;;;;;;;4915624;29;20129;-59
2021/03/17 06:27:39;;;;;;;13.68;1.38;;;;;;;;;;4930077;29;20098;-60
2021/03/17 06:30:09;;;;;;;7.57;1.23;;;;;;;;;;4933082;29;20099;-60
2021/03/17 06:32:35;;;;;;;8.55;1.40;;;;;;;;;;4900169;29;20028;-59
2021/03/17 06:35:14;;;;;;;16.23;1.33;;;;;;;;;;4926778;29;20037;-59
2021/03/17 06:37:39;;;;;;;7.50;1.08;;;;;;;;;;4933828;29;20114;-59
2021/03/17 06:40:20;;;;;;;2.35;0.63;;;;;;;;;;4911679;29;20134;-60
2021/03/17 06:42:49;;;;;;;3.03;0.80;;;;;;;;;;4927430;29;20035;-59
2021/03/17 06:45:39;;;;;;;4.03;0.82;;;;;;;;;;4937314;28;20122;-59
2021/03/17 06:48:17;;;;;;;2.67;0.52;;;;;;;;;;4948219;28;20023;-59
2021/03/17 06:50:45;;;;;;;9.15;1.15;;;;;;;;;;4949186;28;20085;-59
2021/03/17 06:53:13;;;;;;;6.72;1.15;;;;;;;;;;4948698;28;20109;-59
2021/03/17 06:55:38;;;;;;;3.58;0.93;;;;;;;;;;4947237;28;20027;-59
2021/03/17 06:58:04;;;;;;;2.58;0.93;;;;;;;;;;4932684;28;20114;-59
2021/03/17 07:00:33;;;;;;;6.43;0.88;;;;;;;;;;4935241;28;20345;-59
2021/03/17 07:03:02;;;;;;;9.40;1.15;;;;;;;;;;4931967;28;20027;-60
2021/03/17 07:05:46;;;;;;;8.40;0.93;;;;;;;;;;4948043;28;20054;-60
2021/03/17 07:08:13;;;;;;;6.67;1.33;;;;;;;;;;4932686;28;20039;-60
2021/03/17 07:10:45;;;;;;;7.47;0.70;;;;;;;;;;4948884;28;20063;-60
2021/03/17 07:13:12;;;;;;;6.63;1.05;;;;;;;;;;4948016;28;20039;-60
2021/03/17 07:15:43;;;;;;;9.07;1.50;;;;;;;;;;4935433;28;20026;-60
2021/03/17 07:18:13;;;;;;;6.75;1.13;;;;;;;;;;4947669;28;20031;-60
2021/03/17 07:20:45;;;;;;;6.70;1.40;;;;;;;;;;4947833;28;20122;-60
2021/03/17 07:23:20;;;;;;;10.50;1.35;;;;;;;;;;4931111;29;20130;-60
2021/03/17 07:26:08;;;;;;;6.38;1.40;;;;;;;;;;4948494;28;20059;-60
2021/03/17 07:28:51;;;;;;;8.80;1.05;;;;;;;;;;4946798;28;20045;-59
2021/03/17 07:31:24;;;;;;;9.48;1.42;;;;;;;;;;4946047;28;20182;-60
2021/03/17 07:33:50;;;;;;;10.73;0.98;;;;;;;;;;4948306;28;20034;-59
2021/03/17 07:36:37;;;;;;;8.52;1.02;;;;;;;;;;4947958;28;20070;-59
2021/03/17 07:39:07;;;;;;;10.80;1.52;;;;;;;;;;4949971;28;20380;-61
2021/03/17 07:41:34;;;;;;;5.25;1.30;;;;;;;;;;4945510;28;20130;-61
2021/03/17 07:44:01;;;;;;;6.03;0.93;;;;;;;;;;4946121;28;20046;-60
2021/03/17 07:46:26;;;;;;;5.20;1.10;;;;;;;;;;4950995;28;20554;-60
2021/03/17 07:48:57;;;;;;;7.18;0.90;;;;;;;;;;4945600;28;20028;-62
2021/03/17 07:51:23;;;;;;;6.70;0.90;;;;;;;;;;4944795;28;20027;-60
2021/03/17 07:53:52;;;;;;;8.38;1.42;;;;;;;;;;4946866;28;20418;-62
2021/03/17 07:56:21;;;;;;;6.32;1.00;;;;;;;;;;4947074;28;20035;-62
2021/03/17 07:58:50;;;;;;;10.60;1.60;;;;;;;;;;4945683;28;20023;-61
2021/03/17 08:01:16;;;;;;;9.88;0.98;;;;;;;;;;4948480;28;20028;-61
2021/03/17 08:03:41;;;;;;;4.93;1.13;;;;;;;;;;4948408;28;20094;-60
2021/03/17 08:06:07;;;;;;;3.33;0.85;;;;;;;;;;4948833;28;20038;-61
2021/03/17 08:08:34;;;;;;;6.38;1.10;;;;;;;;;;4946063;28;20027;-62
2021/03/17 08:11:02;;;;;;;4.97;0.70;;;;;;;;;;4937200;28;20059;-62
2021/03/17 08:13:29;;;;;;;5.55;0.98;;;;;;;;;;4932392;28;20031;-64
2021/03/17 08:15:54;;;;;;;7.35;1.15;;;;;;;;;;4929912;28;20039;-62
2021/03/17 08:18:31;;;;;;;3.60;1.35;;;;;;;;;;4927869;28;20066;-63
2021/03/17 08:20:59;;;;;;;;;;;;;;;;;;4932436;28;20155;-62
2021/03/17 08:23:36;;;;;;;9.18;0.85;;;;;;;;;;4931944;28;20418;-63
2021/03/17 08:26:06;;;;;;;4.85;1.15;;;;;;;;;;4928761;28;20042;-61
2021/03/17 08:28:46;;;;;;;7.28;0.88;;;;;;;;;;4911775;28;20779;-61
2021/03/17 08:31:40;;;;;;;12.98;1.15;;;;;;;;;;4931802;28;20544;-62
2021/03/17 08:34:28;;;;;;;9.00;1.25;;;;;;;;;;4929987;28;20073;-62
2021/03/17 08:37:00;;;;;;;5.30;0.90;;;;;;;;;;4931149;28;20145;-62
2021/03/17 08:39:37;;;;;;;8.05;0.93;;;;;;;;;;4935725;28;20047;-61
2021/03/17 08:42:11;;;;;;;5.00;0.60;;;;;;;;;;4932589;28;20039;-62
2021/03/17 08:44:40;;;;;;;4.57;0.82;;;;;;;;;;4929859;28;21011;-63
2021/03/17 08:47:16;;;;;;;4.65;0.95;;;;;;;;;;4933905;28;20023;-61
2021/03/17 08:49:42;;;;;;;12.02;1.88;;;;;;;;;;4927663;28;20111;-62
2021/03/17 08:52:11;;;;;;;8.45;0.90;;;;;;;;;;4913842;28;20038;-63
2021/03/17 08:54:41;;;;;;;9.77;1.17;;;;;;;;;;4928869;28;21977;-62
2021/03/17 08:57:10;;;;;;;6.22;1.40;;;;;;;;;;4931233;28;20035;-61
2021/03/17 08:59:39;;;;;;;5.38;0.85;;;;;;;;;;4933759;28;20055;-64
2021/03/17 09:02:15;;;;;;;4.70;1.13;;;;;;;;;;4917595;28;20043;-63
2021/03/17 09:04:51;;;;;;;9.05;1.10;;;;;;;;;;4926749;28;20185;-66
2021/03/17 09:07:20;;;;;;;8.73;1.45;;;;;;;;;;4914347;28;22064;-65
2021/03/17 09:10:17;;;;;;;5.90;1.08;;;;;;;;;;4918189;28;20042;-63
2021/03/17 09:12:43;;;;;;;4.25;0.82;;;;;;;;;;4926183;28;20067;-65
2021/03/17 09:15:14;;;;;;;7.72;0.98;;;;;;;;;;4916449;28;20046;-65
2021/03/17 09:17:45;;;;;;;7.13;0.98;;;;;;;;;;4931064;28;20054;-63
2021/03/17 09:20:14;;;;;;;11.07;1.20;;;;;;;;;;4935390;28;20738;-64
2021/03/17 09:22:44;;;;;;;7.05;1.08;;;;;;;;;;4930620;28;20420;-65
2021/03/17 09:25:17;;;;;;;9.00;1.20;;;;;;;;;;4931730;28;20027;-65
2021/03/17 09:27:52;;;;;;;6.85;1.02;;;;;;;;;;4934630;28;20035;-69
2021/03/17 09:30:21;;;;;;;12.90;0.90;;;;;;;;;;4930249;28;20129;-65
2021/03/17 09:32:49;;;;;;;6.32;0.98;;;;;;;;;;4934412;28;20126;-64
2021/03/17 09:35:18;;;;;;;7.05;1.17;;;;;;;;;;4932473;28;22173;-66
2021/03/17 09:37:44;;;;;;;6.88;1.10;;;;;;;;;;4933933;28;20027;-68
2021/03/17 09:40:13;;;;;;;7.43;1.10;;;;;;;;;;4934816;28;20081;-66
2021/03/17 09:42:38;;;;;;;6.15;0.70;;;;;;;;;;4910775;28;20471;-65
2021/03/17 09:45:08;;;;;;;7.28;1.60;;;;;;;;;;4927925;28;20083;-65
2021/03/17 09:47:39;;;;;;;6.30;1.00;;;;;;;;;;4931219;28;20066;-64
2021/03/17 09:50:13;;;;;;;8.32;1.02;;;;;;;;;;4934313;28;20794;-67
2021/03/17 09:52:42;;;;;;;5.35;1.25;;;;;;;;;;4936139;28;20073;-65
2021/03/17 09:55:08;;;;;;;4.80;0.90;;;;;;;;;;4911301;28;20035;-66
2021/03/17 09:57:36;;;;;;;8.73;1.40;;;;;;;;;;4933818;28;20212;-65
2021/03/17 10:00:04;;;;;;;3.40;0.50;;;;;;;;;;4930415;28;20073;-65
2021/03/17 10:02:32;;;;;;;9.80;1.60;;;;;;;;;;4933392;28;20876;-66
2021/03/17 10:05:03;;;;;;;5.82;0.98;;;;;;;;;;4914581;28;20074;-69
2021/03/17 10:07:34;;;;;;;3.20;0.90;;;;;;;;;;4922314;28;20033;-66
2021/03/17 10:10:03;;;;;;;8.15;0.98;;;;;;;;;;4934107;28;20023;-66
2021/03/17 10:12:32;;;;;;;6.20;1.20;;;;;;;;;;4933585;28;21038;-64
2021/03/17 10:15:08;;;;;;;9.43;0.90;;;;;;;;;;4929368;28;20042;-66
2021/03/17 10:17:35;;;;;;;3.53;0.63;;;;;;;;;;4929225;28;20494;-68
2021/03/17 10:20:03;;;;;;;7.38;1.35;;;;;;;;;;4932475;28;20031;-68
2021/03/17 10:22:29;;;;;;;8.52;1.20;;;;;;;;;;4932356;28;20034;-67
2021/03/17 10:24:55;;;;;;;6.10;1.05;;;;;;;;;;4913987;28;20515;-67
2021/03/17 10:27:30;;;;;;;11.02;0.82;;;;;;;;;;4935044;28;20031;-65
2021/03/17 10:30:04;;;;;;;9.70;0.80;;;;;;;;;;4931210;28;20719;-68
2021/03/17 10:32:34;;;;;;;16.08;1.45;;;;;;;;;;4931709;28;20030;-67
2021/03/17 10:35:02;;;;;;;8.60;0.90;;;;;;;;;;4913963;28;20101;-69
2021/03/17 10:37:28;;;;;;;3.30;0.63;;;;;;;;;;4933541;28;20035;-68
2021/03/17 10:39:54;;;;;;;8.85;1.70;;;;;;;;;;4896335;28;20127;-63
2021/03/17 10:42:24;;;;;;;6.10;1.17;;;;;;;;;;4927776;28;20070;-65
2021/03/17 10:45:08;;;;;;;10.30;1.80;;;;;;;;;;4930790;28;20081;-66
2021/03/17 10:47:39;;;;;;;6.05;0.90;;;;;;;;;;4927648;28;20042;-66
2021/03/17 10:50:06;;;;;;;13.70;1.10;;;;;;;;;;4912890;28;20027;-67
2021/03/17 10:52:34;;;;;;;27.48;1.50;;;;;;;;;;4930586;28;20050;-67
2021/03/17 10:55:07;;;;;;;6.05;0.65;;;;;;;;;;4911739;28;20031;-65
2021/03/17 10:57:33;;;;;;;9.25;1.42;;;;;;;;;;4933782;28;20042;-66
2021/03/17 11:00:10;;;;;;;7.85;0.98;;;;;;;;;;4918386;28;20379;-65
2021/03/17 11:02:36;;;;;;;7.88;0.93;;;;;;;;;;4929816;28;20499;-66
2021/03/17 11:05:09;;;;;;;4.57;0.47;;;;;;;;;;4934194;28;20062;-66
2021/03/17 11:07:50;;;;;;;2.55;0.47;;;;;;;;;;4912313;28;20042;-66
2021/03/17 11:10:27;;;;;;;5.60;0.75;;;;;;;;;;4931482;28;20062;-67
2021/03/17 11:12:55;;;;;;;3.50;0.65;;;;;;;;;;4932476;28;20042;-68
2021/03/17 11:15:31;;;;;;;7.85;1.02;;;;;;;;;;4931150;28;20035;-67
2021/03/17 11:17:59;;;;;;;6.43;0.57;;;;;;;;;;4932085;28;20109;-70
2021/03/17 11:20:27;;;;;;;10.63;1.10;;;;;;;;;;4929978;28;20158;-69
2021/03/17 11:22:55;;;;;;;9.88;1.02;;;;;;;;;;4932809;28;20038;-69
2021/03/17 11:25:24;;;;;;;6.97;0.93;;;;;;;;;;4932177;28;20038;-66
2021/03/17 11:27:49;;;;;;;5.82;0.70;;;;;;;;;;4932408;28;20130;-66
2021/03/17 11:30:15;;;;;;;3.95;0.90;;;;;;;;;;4930730;28;20082;-67
2021/03/17 11:32:43;;;;;;;7.65;0.90;;;;;;;;;;4929541;28;20038;-71
2021/03/17 11:35:13;;;;;;;7.97;1.00;;;;;;;;;;4934106;28;20045;-67
2021/03/17 11:37:39;;;;;;;4.47;0.75;;;;;;;;;;4926341;28;20066;-67
2021/03/17 11:40:08;;;;;;;4.00;0.70;;;;;;;;;;4933476;28;20070;-68
2021/03/17 11:42:37;;;;;;;4.18;0.90;;;;;;;;;;4931691;28;20134;-71
2021/03/17 11:45:03;;;;;;;6.55;0.65;;;;;;;;;;4928512;28;20058;-66
2021/03/17 11:47:33;;;;;;;5.82;1.00;;;;;;;;;;4932154;28;20091;-64
2021/03/17 11:49:58;;;;;;;5.97;0.77;;;;;;;;;;4928015;28;20077;-68
2021/03/17 11:52:24;;;;;;;6.72;1.08;;;;;;;;;;4910251;28;20460;-64
2021/03/17 11:54:54;;;;;;;3.53;0.80;;;;;;;;;;4916070;28;20032;-64
2021/03/17 11:57:22;;;;;;;3.92;0.47;;;;;;;;;;4933510;28;20483;-68
2021/03/17 11:59:50;;;;;;;6.28;0.82;;;;;;;;;;4929872;28;20114;-71
2021/03/17 12:02:19;;;;;;;5.85;0.60;;;;;;;;;;4928768;28;20047;-67
2021/03/17 12:04:49;;;;;;;12.70;1.27;;;;;;;;;;4928274;28;20067;-67
2021/03/17 12:07:15;;;;;;;6.68;0.70;;;;;;;;;;4929109;28;20035;-68
2021/03/17 12:09:43;;;;;;;4.90;0.98;;;;;;;;;;4931132;28;20543;-66
2021/03/17 12:12:11;;;;;;;6.50;1.60;;;;;;;;;;4934099;28;20035;-69
2021/03/17 12:14:40;;;;;;;7.82;1.52;;;;;;;;;;4935681;28;20031;-67
2021/03/17 12:17:08;;;;;;;9.20;0.95;;;;;;;;;;4908314;28;20166;-67
2021/03/17 12:19:37;;;;;;;15.15;1.27;;;;;;;;;;4939335;28;20090;-67
2021/03/17 12:22:03;;;;;;;7.45;1.30;;;;;;;;;;4934070;28;20047;-69
2021/03/17 12:24:31;;;;;;;7.57;0.85;;;;;;;;;;4915412;28;20644;-67
2021/03/17 12:26:56;;;;;;;4.10;1.25;;;;;;;;;;4932425;28;20035;-67
2021/03/17 12:29:26;;;;;;;6.10;1.15;;;;;;;;;;4933522;28;20049;-67
2021/03/17 12:31:54;;;;;;;7.53;0.82;;;;;;;;;;4938361;28;20039;-67
2021/03/17 12:34:20;;;;;;;4.10;0.80;;;;;;;;;;4916107;28;20039;-69
2021/03/17 12:36:48;;;;;;;8.57;0.80;;;;;;;;;;4914692;28;20043;-65
2021/03/17 12:39:14;;;;;;;2.42;0.85;;;;;;;;;;4932506;28;20118;-69
2021/03/17 12:41:41;;;;;;;3.97;0.77;;;;;;;;;;4915783;28;20034;-70
2021/03/17 12:44:12;;;;;;;4.03;1.05;;;;;;;;;;4935504;28;20054;-66
2021/03/17 12:46:37;;;;;;;5.78;0.85;;;;;;;;;;4926816;28;21073;-66
2021/03/17 12:49:02;;;;;;;9.45;0.80;;;;;;;;;;4897753;29;20044;-67
2021/03/17 12:51:30;;;;;;;9.98;0.70;;;;;;;;;;4910067;29;20028;-68
2021/03/17 12:53:58;;;;;;;6.43;0.57;;;;;;;;;;4932341;28;20975;-66
2021/03/17 12:56:25;;;;;;;5.60;0.80;;;;;;;;;;4912410;29;20035;-65
2021/03/17 12:58:53;;;;;;;5.47;1.02;;;;;;;;;;4914773;29;20038;-68
2021/03/17 13:01:19;;;;;;;6.03;0.90;;;;;;;;;;4913753;29;20039;-68
2021/03/17 13:03:44;;;;;;;8.40;0.88;;;;;;;;;;4915964;28;20039;-68
2021/03/17 13:06:11;;;;;;;8.88;1.08;;;;;;;;;;4917920;29;21045;-67
2021/03/17 13:08:41;;;;;;;11.55;0.82;;;;;;;;;;4925236;28;20812;-66
2021/03/17 13:11:07;;;;;;;4.07;0.38;;;;;;;;;;4926104;28;20039;-66
2021/03/17 13:13:35;;;;;;;14.93;1.20;;;;;;;;;;4916207;29;20043;-68
2021/03/17 13:16:00;;;;;;;6.93;0.60;;;;;;;;;;4912538;29;20959;-67
2021/03/17 13:18:29;;;;;;;6.18;0.70;;;;;;;;;;4926761;28;20039;-68
2021/03/17 13:20:54;;;;;;;2.00;0.68;;;;;;;;;;4910809;29;20488;-69
2021/03/17 13:23:23;;;;;;;5.60;0.90;;;;;;;;;;4926670;28;20035;-69
2021/03/17 13:25:48;;;;;;;7.65;1.27;;;;;;;;;;4909557;29;20027;-66
2021/03/17 13:28:16;;;;;;;12.48;1.58;;;;;;;;;;4910422;29;20042;-67
2021/03/17 13:30:47;;;;;;;3.47;0.90;;;;;;;;;;4930092;28;20051;-68
2021/03/17 13:33:16;;;;;;;5.97;1.10;;;;;;;;;;4927315;28;21080;-68
2021/03/17 13:35:46;;;;;;;13.02;1.65;;;;;;;;;;4911401;28;20043;-68
2021/03/17 13:38:14;;;;;;;11.00;1.35;;;;;;;;;;4927786;28;20166;-69
2021/03/17 13:40:40;;;;;;;14.77;1.67;;;;;;;;;;4909347;29;20431;-69
2021/03/17 13:43:08;;;;;;;5.93;1.05;;;;;;;;;;4913427;28;20028;-69
2021/03/17 13:45:39;;;;;;;8.05;1.10;;;;;;;;;;4921387;28;20086;-74
2021/03/17 13:48:05;;;;;;;2.65;0.50;;;;;;;;;;4903615;28;20035;-67
2021/03/17 13:50:31;;;;;;;9.68;1.23;;;;;;;;;;4932253;28;20047;-67
2021/03/17 13:52:57;;;;;;;14.68;1.55;;;;;;;;;;4933360;28;20034;-67
2021/03/17 13:55:23;;;;;;;11.38;1.30;;;;;;;;;;4934927;28;20069;-67
2021/03/17 13:57:50;;;;;;;8.55;1.13;;;;;;;;;;4932012;28;20257;-67
2021/03/17 14:00:21;;;;;;;6.53;1.00;;;;;;;;;;4927766;28;20695;-68
2021/03/17 14:02:53;;;;;;;5.28;0.90;;;;;;;;;;4934485;28;20134;-66
2021/03/17 14:05:22;;;;;;;5.28;0.82;;;;;;;;;;4914261;28;20037;-68
2021/03/17 14:07:50;;;;;;;4.43;0.77;;;;;;;;;;4928745;28;20039;-71
2021/03/17 14:10:19;;;;;;;0.95;0.50;;;;;;;;;;4914631;28;20098;-68
2021/03/17 14:12:47;;;;;;;3.55;0.50;;;;;;;;;;4929833;28;20027;-67
2021/03/17 14:15:17;;;;;;;2.78;0.57;;;;;;;;;;4933870;28;20163;-66
2021/03/17 14:17:46;;;;;;;9.88;1.13;;;;;;;;;;4935405;28;20690;-67
2021/03/17 14:20:12;;;;;;;3.90;0.70;;;;;;;;;;4901290;28;20034;-66
2021/03/17 14:22:38;;;;;;;4.63;0.70;;;;;;;;;;4916007;28;20121;-67
2021/03/17 14:25:07;;;;;;;4.10;0.63;;;;;;;;;;4911245;28;20043;-70
2021/03/17 14:27:33;;;;;;;5.90;0.90;;;;;;;;;;4929608;28;20109;-68
2021/03/17 14:30:01;;;;;;;4.38;1.00;;;;;;;;;;4929233;28;20043;-67
2021/03/17 14:32:26;;;;;;;7.22;1.10;;;;;;;;;;4919109;28;20038;-67
2021/03/17 14:34:52;;;;;;;11.85;1.70;;;;;;;;;;4932672;28;20034;-67
2021/03/17 14:37:20;;;;;;;9.70;0.90;;;;;;;;;;4917215;28;20155;-68
2021/03/17 14:39:48;;;;;;;2.83;0.82;;;;;;;;;;4933581;28;20990;-67
2021/03/17 14:42:14;;;;;;;8.80;0.88;;;;;;;;;;4931145;28;20035;-68
2021/03/17 14:44:44;;;;;;;5.38;0.85;;;;;;;;;;4914642;28;20039;-67
2021/03/17 14:47:12;;;;;;;4.32;0.75;;;;;;;;;;4913947;29;20066;-71
2021/03/17 14:49:38;;;;;;;14.30;1.25;;;;;;;;;;4912397;29;20031;-71
2021/03/17 14:52:06;;;;;;;7.07;0.75;;;;;;;;;;4913090;29;20032;-69